Aurelia — PB5046 — position and weather

sailwx.info

Track history (hours):
 
Tides and Currents Weather Stations Pressure Air Temp Water Temp Dewpoint Dewpoint Depression Visibility Wind Speed Wind Dir Waves Ship Positions

Aurelia

Last reported at 2016-Aug-29 15:12 UTC. Time now 2016-Aug-29 19:56 UTC.
Position N 52°24' E 004°53'.

Length 32 m; draft 3.8 m.

Type: Pleasure craft. MMSI: 244630125.

Date/timePositionNaut miles runAvg speedWind from/ knotsBaromVisibWave heightAir tempDewpointWater temp
2016-Aug-29 15:12N 52°24' E 004°53'0 0.0
2016-Aug-29 14:33N 52°24' E 004°53'0 0.0
2016-Aug-29 13:33N 52°24' E 004°53'0 0.0
2016-Aug-29 12:33N 52°24' E 004°53'0 0.0
2016-Aug-29 11:30N 52°24' E 004°53'0 0.0
2016-Aug-29 10:30N 52°24' E 004°53'0 0.0
2016-Aug-29 09:34N 52°24' E 004°53'  
2016-Aug-26 12:33N 52°24' E 004°53'1 1.5
2016-Aug-26 11:34N 52°23' E 004°54'2 2.4
2016-Aug-26 10:32N 52°23' E 004°58'4 4.1
2016-Aug-26 09:34N 52°24' E 005°04'4 4.4
2016-Aug-26 08:33N 52°28' E 005°09'7 6.9
2016-Aug-26 07:33N 52°34' E 005°12'6 6.2
2016-Aug-26 06:33N 52°40' E 005°15'2 1.1
2016-Aug-26 04:32N 52°42' E 005°17'0 0.0
2016-Aug-26 03:32N 52°42' E 005°17'0 0.0
2016-Aug-26 02:29N 52°42' E 005°17'0 0.0
2016-Aug-26 01:32N 52°42' E 005°17'0 0.0
2016-Aug-26 00:32N 52°42' E 005°17'0 0.0
2016-Aug-25 23:32N 52°42' E 005°17'0 0.0
2016-Aug-25 22:32N 52°42' E 005°17'0 0.0
2016-Aug-25 21:32N 52°42' E 005°17'0 0.0
2016-Aug-25 20:32N 52°42' E 005°17'0 0.0
2016-Aug-25 19:32N 52°42' E 005°17'0 0.0
2016-Aug-25 18:33N 52°42' E 005°17'7 6.8
2016-Aug-25 17:33N 52°49' E 005°19'7 6.7
2016-Aug-25 16:31N 52°56' E 005°20'7 7.2
2016-Aug-25 15:33N 53°03' E 005°21'2 1.3
2016-Aug-25 14:22N 53°03' E 005°24'0 0.0
2016-Aug-25 13:31N 53°03' E 005°24'0 0.2
2016-Aug-25 12:32N 53°03' E 005°24'0 0.2
2016-Aug-25 11:32N 53°03' E 005°24'0 0.0
2016-Aug-24 14:07N 53°03' E 005°24'0 0.0
2016-Aug-24 13:28N 53°03' E 005°24'0 0.0
2016-Aug-24 12:31N 53°03' E 005°24'0 0.0
2016-Aug-24 11:31N 53°03' E 005°24'0 0.0
2016-Aug-24 10:31N 53°03' E 005°24'0 0.0
2016-Aug-24 09:31N 53°03' E 005°24'0 0.0
2016-Aug-24 08:31N 53°03' E 005°24'0 0.0
2016-Aug-24 07:31N 53°03' E 005°24'0 0.0
2016-Aug-24 06:31N 53°03' E 005°24'  
Track history (hours):
 
Tides and Currents Weather Stations Pressure Air Temp Water Temp Dewpoint Dewpoint Depression Visibility Wind Speed Wind Dir Waves Ship Positions

Aurelia

Last reported at 2016-Aug-29 15:12 UTC. Time now 2016-Aug-29 19:56 UTC.
Position N 52°24' E 004°53'.

Length 32 m; draft 3.8 m.

Type: Pleasure craft. MMSI: 244630125.

Date/timePositionNaut miles runAvg speedWind from/ knotsBaromVisibWave heightAir tempDewpointWater temp
2016-Aug-29 15:12N 52°24' E 004°53'0 0.0
2016-Aug-29 14:33N 52°24' E 004°53'0 0.0
2016-Aug-29 13:33N 52°24' E 004°53'0 0.0
2016-Aug-29 12:33N 52°24' E 004°53'0 0.0
2016-Aug-29 11:30N 52°24' E 004°53'0 0.0
2016-Aug-29 10:30N 52°24' E 004°53'0 0.0
2016-Aug-29 09:34N 52°24' E 004°53'  
2016-Aug-26 12:33N 52°24' E 004°53'1 1.5
2016-Aug-26 11:34N 52°23' E 004°54'2 2.4
2016-Aug-26 10:32N 52°23' E 004°58'4 4.1
2016-Aug-26 09:34N 52°24' E 005°04'4 4.4
2016-Aug-26 08:33N 52°28' E 005°09'7 6.9
2016-Aug-26 07:33N 52°34' E 005°12'6 6.2
2016-Aug-26 06:33N 52°40' E 005°15'2 1.1
2016-Aug-26 04:32N 52°42' E 005°17'0 0.0
2016-Aug-26 03:32N 52°42' E 005°17'0 0.0
2016-Aug-26 02:29N 52°42' E 005°17'0 0.0
2016-Aug-26 01:32N 52°42' E 005°17'0 0.0
2016-Aug-26 00:32N 52°42' E 005°17'0 0.0
2016-Aug-25 23:32N 52°42' E 005°17'0 0.0
2016-Aug-25 22:32N 52°42' E 005°17'0 0.0
2016-Aug-25 21:32N 52°42' E 005°17'0 0.0
2016-Aug-25 20:32N 52°42' E 005°17'0 0.0
2016-Aug-25 19:32N 52°42' E 005°17'0 0.0
2016-Aug-25 18:33N 52°42' E 005°17'7 6.8
2016-Aug-25 17:33N 52°49' E 005°19'7 6.7
2016-Aug-25 16:31N 52°56' E 005°20'7 7.2
2016-Aug-25 15:33N 53°03' E 005°21'2 1.3
2016-Aug-25 14:22N 53°03' E 005°24'0 0.0
2016-Aug-25 13:31N 53°03' E 005°24'0 0.2
2016-Aug-25 12:32N 53°03' E 005°24'0 0.2
2016-Aug-25 11:32N 53°03' E 005°24'0 0.0
2016-Aug-24 14:07N 53°03' E 005°24'0 0.0
2016-Aug-24 13:28N 53°03' E 005°24'0 0.0
2016-Aug-24 12:31N 53°03' E 005°24'0 0.0
2016-Aug-24 11:31N 53°03' E 005°24'0 0.0
2016-Aug-24 10:31N 53°03' E 005°24'0 0.0
2016-Aug-24 09:31N 53°03' E 005°24'0 0.0
2016-Aug-24 08:31N 53°03' E 005°24'0 0.0
2016-Aug-24 07:31N 53°03' E 005°24'0 0.0
2016-Aug-24 06:31N 53°03' E 005°24'  

Dump ship's entire track history